createdAt,value
2023-04-10T00:02:23.346Z,100075.22
2023-04-10T00:05:10.973Z,100074.97
2023-04-10T00:07:58.005Z,100073.22
2023-04-10T00:10:45.050Z,100069.91
2023-04-10T00:13:32.731Z,100087.03
2023-04-10T00:16:20.159Z,100085.00
2023-04-10T00:19:08.234Z,100085.06
2023-04-10T00:21:57.819Z,100091.59
2023-04-10T00:24:44.865Z,100080.09
2023-04-10T00:27:31.961Z,100080.31
2023-04-10T00:30:19.270Z,100072.06
2023-04-10T00:33:06.601Z,100090.00
2023-04-10T00:35:53.638Z,100090.06
2023-04-10T00:38:40.781Z,100087.81
2023-04-10T00:41:29.645Z,100030.03
2023-04-10T00:44:17.151Z,100084.91
2023-04-10T00:47:05.624Z,100068.03
2023-04-10T00:49:53.570Z,100074.28
2023-04-10T00:52:41.084Z,100077.56
2023-04-10T00:55:28.249Z,100080.53
2023-04-10T00:58:15.487Z,100072.41
2023-04-10T01:01:04.143Z,100081.00
2023-04-10T01:03:52.841Z,100080.13
2023-04-10T01:06:58.220Z,100093.84
2023-04-10T01:09:54.399Z,100094.47
2023-04-10T01:13:05.971Z,100088.47
2023-04-10T01:16:01.766Z,100086.91
2023-04-10T01:19:07.358Z,100082.28
2023-04-10T01:21:56.207Z,100084.00
2023-04-10T01:25:09.409Z,100080.31
2023-04-10T01:28:25.971Z,100070.03
2023-04-10T01:31:18.667Z,100063.59
2023-04-10T01:34:10.603Z,100052.88
2023-04-10T01:37:04.086Z,100057.94
2023-04-10T01:39:59.181Z,100073.91
2023-04-10T01:42:53.299Z,100064.81
2023-04-10T01:45:43.798Z,100074.66
2023-04-10T01:48:31.343Z,100066.09
2023-04-10T01:51:18.877Z,100063.94
2023-04-10T01:54:07.218Z,100063.69
2023-04-10T01:56:54.817Z,100058.38
2023-04-10T01:59:42.571Z,100075.94
2023-04-10T02:02:34.051Z,100074.66
2023-04-10T02:05:22.389Z,100075.09
2023-04-10T02:08:15.844Z,100067.97
2023-04-10T02:11:23.596Z,100066.50
2023-04-10T02:14:12.284Z,100070.97
2023-04-10T02:17:01.533Z,100060.09
2023-04-10T02:19:50.408Z,100067.03
2023-04-10T02:22:37.569Z,100060.25
2023-04-10T02:25:24.705Z,100050.13
2023-04-10T02:28:11.820Z,100051.94
2023-04-10T02:30:58.900Z,100044.66
2023-04-10T02:33:46.000Z,100051.16
2023-04-10T02:36:34.129Z,100053.06
2023-04-10T02:39:21.284Z,100052.47
2023-04-10T02:42:08.487Z,100043.72
2023-04-10T02:44:56.210Z,100052.38
2023-04-10T02:47:43.299Z,100040.47
2023-04-10T02:50:32.477Z,100060.50
2023-04-10T02:53:20.100Z,100059.06
2023-04-10T02:56:08.289Z,100058.38
2023-04-10T02:58:56.242Z,100063.19
2023-04-10T03:01:43.486Z,100052.03
2023-04-10T03:04:32.623Z,100054.94
2023-04-10T03:07:19.745Z,100050.75
2023-04-10T03:10:07.357Z,100059.16
2023-04-10T03:12:54.354Z,100057.56
2023-04-10T03:15:41.519Z,100047.66
2023-04-10T03:18:28.645Z,100061.72
2023-04-10T03:21:16.065Z,100046.09
2023-04-10T03:24:03.164Z,100051.28
2023-04-10T03:26:50.660Z,100032.06
2023-04-10T03:29:37.696Z,100055.00
2023-04-10T03:32:24.844Z,100053.56
2023-04-10T03:35:12.130Z,100059.47
2023-04-10T03:37:59.205Z,100062.28
2023-04-10T03:40:46.322Z,100070.94
2023-04-10T03:43:33.463Z,100062.28
2023-04-10T03:46:20.660Z,100062.28
2023-04-10T03:49:07.756Z,100064.00
2023-04-10T03:51:54.987Z,100072.66
2023-04-10T03:54:42.705Z,100072.25
2023-04-10T03:57:29.775Z,100071.25
2023-04-10T04:00:17.255Z,100072.69
2023-04-10T04:03:05.338Z,100065.91
2023-04-10T04:05:52.606Z,100075.78
2023-04-10T04:08:39.714Z,100065.75
2023-04-10T04:11:27.863Z,100057.16
2023-04-10T04:14:14.944Z,100069.09
2023-04-10T04:17:02.093Z,100048.00
2023-04-10T04:19:49.239Z,100052.09
2023-04-10T04:22:36.293Z,100057.59
2023-04-10T04:25:24.238Z,100049.22
2023-04-10T04:28:13.779Z,100049.28
2023-04-10T04:31:01.858Z,100045.50
2023-04-10T04:33:48.962Z,100042.94
2023-04-10T04:36:36.149Z,100048.69
2023-04-10T04:39:23.492Z,100054.25
2023-04-10T04:42:10.617Z,100055.72
2023-04-10T04:44:57.607Z,100061.28
2023-04-10T04:47:44.692Z,100056.66
2023-04-10T04:50:31.718Z,100068.31
2023-04-10T04:53:18.749Z,100068.72
2023-04-10T04:56:06.228Z,100078.94
2023-04-10T04:58:53.543Z,100079.09
2023-04-10T05:01:40.914Z,100089.81
2023-04-10T05:04:28.105Z,100083.13
2023-04-10T05:07:15.778Z,100099.34
2023-04-10T05:10:02.896Z,100108.94
2023-04-10T05:12:49.898Z,100118.97
2023-04-10T05:15:36.997Z,100121.19
2023-04-10T05:18:24.235Z,100105.94
2023-04-10T05:21:11.391Z,100105.97
2023-04-10T05:23:58.552Z,100095.28
2023-04-10T05:26:45.877Z,100091.56
2023-04-10T05:29:33.004Z,100087.16
2023-04-10T05:32:20.106Z,100088.78
2023-04-10T05:35:07.829Z,100082.09
2023-04-10T05:37:54.878Z,100082.25
2023-04-10T05:40:45.984Z,100085.00
2023-04-10T05:43:33.084Z,100073.53
2023-04-10T05:46:20.172Z,100073.44
2023-04-10T05:49:08.364Z,100072.75
2023-04-10T05:51:55.403Z,100068.38
2023-04-10T05:54:42.490Z,100070.84
2023-04-10T05:57:30.571Z,100073.78
2023-04-10T06:00:18.719Z,100077.03
2023-04-10T06:03:05.822Z,100087.63
2023-04-10T06:05:53.869Z,100094.13
2023-04-10T06:08:41.058Z,100083.56
2023-04-10T06:11:28.185Z,100083.66
2023-04-10T06:14:15.233Z,100079.63
2023-04-10T06:17:02.366Z,100080.31
2023-04-10T06:19:49.408Z,100076.78
2023-04-10T06:22:36.465Z,100087.00
2023-04-10T06:25:23.464Z,100082.44
2023-04-10T06:28:10.549Z,100074.47
2023-04-10T06:30:57.742Z,100082.19
2023-04-10T06:33:44.866Z,100090.66
2023-04-10T06:36:31.908Z,100073.75
2023-04-10T06:39:19.622Z,100087.38
2023-04-10T06:42:06.765Z,100083.88
2023-04-10T06:44:53.873Z,100067.03
2023-04-10T06:47:40.913Z,100085.78
2023-04-10T06:50:28.132Z,100087.69
2023-04-10T06:53:15.480Z,100079.53
2023-04-10T06:56:03.693Z,100080.94
2023-04-10T06:58:51.083Z,100080.94
2023-04-10T07:01:38.387Z,100094.00
2023-04-10T07:04:25.513Z,100087.22
2023-04-10T07:07:13.532Z,100082.75
2023-04-10T07:10:00.690Z,100080.31
2023-04-10T07:12:48.803Z,100083.22
2023-04-10T07:15:36.389Z,100089.31
2023-04-10T07:18:23.574Z,100088.84
2023-04-10T07:21:14.521Z,100090.75
2023-04-10T07:24:02.009Z,100089.69
2023-04-10T07:26:49.143Z,100102.41
2023-04-10T07:29:36.444Z,100100.84
2023-04-10T07:32:24.213Z,100102.63
2023-04-10T07:35:11.508Z,100098.19
2023-04-10T07:37:58.537Z,100102.59
2023-04-10T07:40:45.737Z,100096.31
2023-04-10T07:43:32.774Z,100108.47
2023-04-10T07:46:21.064Z,100107.81
2023-04-10T07:49:08.813Z,100103.00
2023-04-10T07:51:56.125Z,100108.69
2023-04-10T07:54:43.194Z,100092.34
2023-04-10T07:57:32.424Z,100092.75
2023-04-10T08:00:19.686Z,100087.03
2023-04-10T08:03:07.494Z,100082.53
2023-04-10T08:05:54.952Z,100078.03
2023-04-10T08:08:43.102Z,100072.00
2023-04-10T08:11:32.098Z,100078.72
2023-04-10T08:14:19.141Z,100085.06
2023-04-10T08:17:06.352Z,100072.47
2023-04-10T08:19:53.432Z,100070.88
2023-04-10T08:22:40.612Z,100059.38
2023-04-10T08:25:27.687Z,100066.19
2023-04-10T08:28:14.709Z,100066.59
2023-04-10T08:35:57.421Z,100075.72
2023-04-10T08:38:45.589Z,100081.94
2023-04-10T08:41:33.078Z,100082.97
2023-04-10T08:44:20.146Z,100068.47
2023-04-10T08:47:08.736Z,100061.56
2023-04-10T08:50:03.353Z,100072.03
2023-04-10T08:52:53.099Z,100044.47
2023-04-10T08:55:41.506Z,100049.50
2023-04-10T08:58:28.774Z,100050.72
2023-04-10T09:01:16.288Z,100047.06
2023-04-10T09:04:03.553Z,100045.91
2023-04-10T09:06:50.831Z,100033.00
2023-04-10T09:09:38.193Z,100031.31
2023-04-10T09:12:26.159Z,100017.91
2023-04-10T09:15:14.238Z,100019.56
2023-04-10T09:18:03.828Z,100012.84
2023-04-10T09:20:51.823Z,100005.09
2023-04-10T09:23:38.946Z,100011.88
2023-04-10T09:26:28.763Z,100006.47
2023-04-10T09:29:17.158Z,100001.13
2023-04-10T09:32:04.421Z,99986.69
2023-04-10T09:34:57.374Z,99998.00
2023-04-10T09:37:46.012Z,99977.63
2023-04-10T09:40:33.181Z,99984.75
2023-04-10T09:43:25.872Z,99980.19
2023-04-10T09:46:29.323Z,99973.28
2023-04-10T09:49:16.475Z,99971.00
2023-04-10T09:52:18.637Z,99940.78
2023-04-10T09:55:08.879Z,99968.84
2023-04-10T09:57:57.816Z,99946.25
2023-04-10T10:00:47.133Z,99949.88
2023-04-10T10:03:34.280Z,99947.44
2023-04-10T10:06:22.230Z,99933.28
2023-04-10T10:09:09.593Z,99922.69
2023-04-10T10:11:58.191Z,99920.97
2023-04-10T10:14:52.724Z,99916.91
2023-04-10T10:17:46.814Z,99914.69
2023-04-10T10:20:37.011Z,99902.97
2023-04-10T10:23:26.184Z,99907.88
2023-04-10T10:26:14.566Z,99902.38
2023-04-10T10:29:09.090Z,99898.22
2023-04-10T10:31:56.808Z,99875.75
2023-04-10T10:34:44.893Z,99890.44
2023-04-10T10:37:32.479Z,99871.78
2023-04-10T10:40:38.827Z,99870.09
2023-04-10T10:43:38.144Z,99872.13
2023-04-10T10:46:51.361Z,99866.75
2023-04-10T10:49:59.278Z,99861.91
2023-04-10T10:52:53.061Z,99862.53
2023-04-10T10:55:40.227Z,99858.25
2023-04-10T10:58:48.520Z,99857.94
2023-04-10T11:01:35.978Z,99854.56
2023-04-10T11:04:48.813Z,99854.69
2023-04-10T11:08:00.785Z,99853.00
2023-04-10T11:11:05.909Z,99837.28
2023-04-10T11:13:53.065Z,99831.50
2023-04-10T11:16:46.926Z,99829.03
2023-04-10T11:20:00.233Z,99827.41
2023-04-10T11:23:13.278Z,99816.41
2023-04-10T11:26:02.112Z,99818.53
2023-04-10T11:28:49.165Z,99805.69
2023-04-10T11:31:36.424Z,99808.09
2023-04-10T11:34:23.971Z,99791.75
2023-04-10T11:37:11.119Z,99800.44
2023-04-10T11:40:07.812Z,99786.91
2023-04-10T11:43:12.604Z,99781.38
2023-04-10T11:46:08.071Z,99770.13
2023-04-10T11:49:03.475Z,99773.66
2023-04-10T11:51:51.804Z,99769.34
2023-04-10T11:54:48.721Z,99775.13
2023-04-10T11:57:36.383Z,99762.13
2023-04-10T12:00:24.481Z,99761.69
2023-04-10T12:03:11.714Z,99757.78
2023-04-10T12:05:59.293Z,99762.47
2023-04-10T12:08:49.493Z,99753.44
2023-04-10T12:11:36.845Z,99738.59
2023-04-10T12:14:29.287Z,99733.66
2023-04-10T12:17:17.164Z,99725.91
2023-04-10T12:20:06.482Z,99724.09
2023-04-10T12:22:56.823Z,99713.44
2023-04-10T12:25:44.142Z,99721.41
2023-04-10T12:28:31.769Z,99711.22
2023-04-10T12:31:19.152Z,99720.81
2023-04-10T12:34:08.035Z,99689.94
2023-04-10T12:36:58.267Z,99698.50
2023-04-10T12:39:45.291Z,99704.03
2023-04-10T12:42:40.401Z,99706.09
2023-04-10T12:45:45.907Z,99701.00
2023-04-10T12:48:33.374Z,99700.81
2023-04-10T12:51:20.512Z,99692.84
2023-04-10T12:54:07.594Z,99685.88
2023-04-10T12:56:54.811Z,99678.25
2023-04-10T12:59:42.538Z,99678.38
2023-04-10T13:02:29.743Z,99677.94
2023-04-10T13:05:17.117Z,99681.66
2023-04-10T13:08:04.302Z,99670.88
2023-04-10T13:10:51.440Z,99668.13
2023-04-10T13:13:38.432Z,99631.22
2023-04-10T13:16:25.760Z,99661.53
2023-04-10T13:19:13.135Z,99666.81
2023-04-10T13:22:01.450Z,99652.78
2023-04-10T13:24:48.546Z,99661.75
2023-04-10T13:27:35.673Z,99651.44
2023-04-10T13:30:22.716Z,99659.38
2023-04-10T13:33:10.863Z,99652.63
2023-04-10T13:35:58.047Z,99644.28
2023-04-10T13:38:45.398Z,99651.56
2023-04-10T13:41:32.657Z,99643.97
2023-04-10T13:44:19.818Z,99625.19
2023-04-10T13:47:07.029Z,99637.47
2023-04-10T13:49:54.127Z,99629.34
2023-04-10T13:52:41.168Z,99623.16
2023-04-10T13:55:28.274Z,99623.34
2023-04-10T13:58:16.406Z,99621.00
2023-04-10T14:01:03.610Z,99612.88
2023-04-10T14:03:51.289Z,99594.97
2023-04-10T14:06:38.438Z,99595.44
2023-04-10T14:09:25.581Z,99593.94
2023-04-10T14:12:13.193Z,99596.38
2023-04-10T14:15:00.258Z,99591.41
2023-04-10T14:17:47.423Z,99589.28
2023-04-10T14:20:34.578Z,99581.00
2023-04-10T14:23:22.544Z,99587.91
2023-04-10T14:26:09.666Z,99576.31
2023-04-10T14:28:56.974Z,99590.53
2023-04-10T14:31:54.641Z,99582.56
2023-04-10T14:34:44.559Z,99576.59
2023-04-10T14:37:32.558Z,99568.75
2023-04-10T14:40:19.640Z,99563.59
2023-04-10T14:43:07.325Z,99569.16
2023-04-10T14:45:54.409Z,99559.78
2023-04-10T14:48:41.637Z,99551.59
2023-04-10T14:51:28.983Z,99546.22
2023-04-10T14:54:17.130Z,99544.53
2023-04-10T14:57:04.732Z,99531.09
2023-04-10T14:59:51.769Z,99523.97
2023-04-10T15:02:39.178Z,99524.94
2023-04-10T15:05:27.444Z,99520.09
2023-04-10T15:08:14.513Z,99519.72
2023-04-10T15:11:02.121Z,99519.84
2023-04-10T15:13:49.249Z,99512.91
2023-04-10T15:16:36.307Z,99506.81
2023-04-10T15:19:23.494Z,99501.97
2023-04-10T15:22:10.629Z,99491.22
2023-04-10T15:24:57.822Z,99499.16
2023-04-10T15:27:44.932Z,99505.72
2023-04-10T15:30:32.125Z,99492.47
2023-04-10T15:33:19.468Z,99494.09
2023-04-10T15:36:08.129Z,99487.09
2023-04-10T15:38:55.246Z,99481.78
2023-04-10T15:41:42.473Z,99477.03
2023-04-10T15:44:29.581Z,99484.91
2023-04-10T15:47:16.690Z,99474.56
2023-04-10T15:50:04.818Z,99472.41
2023-04-10T15:52:52.102Z,99470.06
2023-04-10T15:55:40.493Z,99478.31
2023-04-10T15:58:27.658Z,99473.91
2023-04-10T16:01:14.799Z,99462.50
2023-04-10T16:04:01.997Z,99460.81
2023-04-10T16:06:49.166Z,99465.53
2023-04-10T16:09:36.282Z,99462.16
2023-04-10T16:12:23.386Z,99464.03
2023-04-10T16:15:10.594Z,99458.78
2023-04-10T16:17:58.475Z,99452.69
2023-04-10T16:20:45.706Z,99456.94
2023-04-10T16:23:32.717Z,99461.19
2023-04-10T16:26:19.828Z,99453.97
2023-04-10T16:29:06.900Z,99451.41
2023-04-10T16:31:54.036Z,99453.09
2023-04-10T16:34:41.156Z,99455.28
2023-04-10T16:37:28.385Z,99446.50
2023-04-10T16:40:16.236Z,99452.91
2023-04-10T16:43:05.266Z,99441.66
2023-04-10T16:45:56.343Z,99447.13
2023-04-10T16:48:43.496Z,99441.59
2023-04-10T16:51:31.231Z,99438.84
2023-04-10T16:54:18.431Z,99443.03
2023-04-10T16:57:05.579Z,99435.34
2023-04-10T16:59:58.175Z,99435.78
2023-04-10T17:02:45.568Z,99422.25
2023-04-10T17:05:35.671Z,99421.03
2023-04-10T17:08:22.767Z,99426.22
2023-04-10T17:11:09.902Z,99433.44
2023-04-10T17:13:57.057Z,99427.94
2023-04-10T17:16:44.273Z,99410.63
2023-04-10T17:19:32.113Z,99417.94
2023-04-10T17:22:20.762Z,99418.38
2023-04-10T17:25:08.766Z,99417.56
2023-04-10T17:27:57.289Z,99428.31
2023-04-10T17:30:44.518Z,99410.63
2023-04-10T17:33:31.600Z,99409.97
2023-04-10T17:36:18.725Z,99406.91
2023-04-10T17:39:06.110Z,99384.63
2023-04-10T17:41:53.696Z,99410.03
2023-04-10T17:44:41.199Z,99403.50
2023-04-10T17:47:28.312Z,99402.09
2023-04-10T17:50:15.720Z,99392.75
2023-04-10T17:53:02.858Z,99401.19
2023-04-10T17:55:50.220Z,99402.69
2023-04-10T17:58:38.713Z,99404.09
2023-04-10T18:01:30.093Z,99397.09
2023-04-10T18:04:17.459Z,99411.59
2023-04-10T18:07:04.745Z,99401.28
2023-04-10T18:09:51.945Z,99396.41
2023-04-10T18:12:40.858Z,99406.19
2023-04-10T18:15:28.368Z,99402.94
2023-04-10T18:18:15.580Z,99413.56
2023-04-10T18:21:03.992Z,99403.34
2023-04-10T18:23:51.701Z,99410.09
2023-04-10T18:26:38.790Z,99401.88
2023-04-10T18:29:27.477Z,99408.72
2023-04-10T18:32:14.626Z,99403.78
2023-04-10T18:35:03.925Z,99403.66
2023-04-10T18:37:51.050Z,99410.84
2023-04-10T18:40:38.488Z,99403.72
2023-04-10T18:43:27.887Z,99408.47
2023-04-10T18:46:15.696Z,99402.75
2023-04-10T18:49:03.667Z,99419.38
2023-04-10T18:51:51.021Z,99403.00
2023-04-10T18:54:40.948Z,99426.44
2023-04-10T18:57:28.243Z,99430.13
2023-04-10T19:00:15.619Z,99430.66
2023-04-10T19:03:03.841Z,99428.31
2023-04-10T19:05:51.511Z,99426.00
2023-04-10T19:08:39.362Z,99431.19
2023-04-10T19:11:26.766Z,99429.44
2023-04-10T19:14:13.939Z,99429.31
2023-04-10T19:17:06.160Z,99419.44
2023-04-10T19:19:54.283Z,99430.22
2023-04-10T19:22:41.584Z,99434.69
2023-04-10T19:25:29.671Z,99433.44
2023-04-10T19:28:17.148Z,99436.75
2023-04-10T19:31:04.991Z,99430.50
2023-04-10T19:33:52.193Z,99439.34
2023-04-10T19:36:42.456Z,99436.59
2023-04-10T19:39:29.655Z,99441.03
2023-04-10T19:42:16.749Z,99439.94
2023-04-10T19:45:04.054Z,99434.16
2023-04-10T19:47:51.237Z,99414.09
2023-04-10T19:50:39.599Z,99416.13
2023-04-10T19:53:26.832Z,99403.91
2023-04-10T19:56:16.553Z,99407.41
2023-04-10T19:59:04.030Z,99415.22
2023-04-10T20:01:51.281Z,99411.28
2023-04-10T20:04:38.809Z,99401.72
2023-04-10T20:07:26.062Z,99403.94
2023-04-10T20:10:13.572Z,99394.50
2023-04-10T20:13:02.721Z,99386.75
2023-04-10T20:15:50.048Z,99391.75
2023-04-10T20:18:38.830Z,99389.06
2023-04-10T20:21:27.260Z,99401.63
2023-04-10T20:24:14.356Z,99383.25
2023-04-10T20:27:02.502Z,99395.16
2023-04-10T20:29:50.318Z,99403.25
2023-04-10T20:32:37.813Z,99390.66
2023-04-10T20:37:53.571Z,99392.13
2023-04-10T20:40:40.659Z,99393.19
2023-04-10T20:43:27.757Z,99383.53
2023-04-10T20:46:15.199Z,99378.50
2023-04-10T20:49:03.610Z,99375.41
2023-04-10T20:51:51.002Z,99380.63
2023-04-10T20:54:38.047Z,99381.28
2023-04-10T20:57:25.105Z,99393.56
2023-04-10T21:00:13.190Z,99374.66
2023-04-10T21:03:00.451Z,99368.53
2023-04-10T21:05:47.687Z,99382.81
2023-04-10T21:08:35.762Z,99369.38
2023-04-10T21:11:22.972Z,99376.56
2023-04-10T21:14:10.074Z,99378.56
2023-04-10T21:16:57.205Z,99357.84
2023-04-10T21:19:44.844Z,99366.84
2023-04-10T21:22:31.968Z,99351.84
2023-04-10T21:25:19.015Z,99349.56
2023-04-10T21:28:06.170Z,99363.25
2023-04-10T21:30:53.328Z,99353.31
2023-04-10T21:33:40.623Z,99363.81
2023-04-10T21:36:27.766Z,99356.88
2023-04-10T21:39:14.786Z,99351.28
2023-04-10T21:42:01.795Z,99341.16
2023-04-10T21:44:48.896Z,99352.72
2023-04-10T21:47:36.023Z,99348.94
2023-04-10T21:50:24.917Z,99334.44
2023-04-10T21:53:12.045Z,99336.81
2023-04-10T21:55:59.200Z,99323.97
2023-04-10T21:58:46.241Z,99329.09
2023-04-10T22:01:34.161Z,99323.41
2023-04-10T22:04:21.326Z,99308.97
2023-04-10T22:07:08.465Z,99318.03
2023-04-10T22:09:55.578Z,99314.78
2023-04-10T22:12:42.630Z,99304.66
2023-04-10T22:15:29.692Z,99313.00
2023-04-10T22:18:18.666Z,99303.38
2023-04-10T22:21:05.832Z,99322.28
2023-04-10T22:23:53.153Z,99321.53
2023-04-10T22:26:42.235Z,99317.94
2023-04-10T22:29:29.344Z,99324.94
2023-04-10T22:32:16.447Z,99325.81
2023-04-10T22:35:03.786Z,99326.63
2023-04-10T22:37:50.980Z,99335.16
2023-04-10T22:40:38.026Z,99320.75
2023-04-10T22:43:25.141Z,99314.81
2023-04-10T22:46:12.232Z,99311.13
2023-04-10T22:48:59.347Z,99305.06
2023-04-10T22:51:46.485Z,99306.97
2023-04-10T22:54:33.643Z,99302.31
2023-04-10T22:57:20.998Z,99306.69
2023-04-10T23:03:33.751Z,99291.97
2023-04-10T23:06:20.909Z,99296.25
2023-04-10T23:09:08.153Z,99290.09
2023-04-10T23:11:55.221Z,99289.72
2023-04-10T23:14:42.310Z,99287.63
2023-04-10T23:17:29.409Z,99283.66
2023-04-10T23:20:16.686Z,99271.47
2023-04-10T23:23:04.041Z,99281.19
2023-04-10T23:25:57.979Z,99265.41
2023-04-10T23:28:45.062Z,99248.94
2023-04-10T23:31:32.211Z,99249.78
2023-04-10T23:34:20.943Z,99246.75
2023-04-10T23:37:08.358Z,99257.69
2023-04-10T23:39:55.366Z,99242.97
2023-04-10T23:42:42.477Z,99263.09
2023-04-10T23:45:29.593Z,99251.63
2023-04-10T23:48:16.709Z,99245.72
2023-04-10T23:51:05.411Z,99225.75
2023-04-10T23:53:52.623Z,99233.41
2023-04-10T23:56:39.672Z,99227.09
2023-04-10T23:59:26.841Z,99229.06
